Chantaco — FMLM — position and weather

sailwx.info

Track history (hours):
 
Tides and Currents Weather Stations Pressure Air Temp Water Temp Dewpoint Dewpoint Depression Visibility Wind Speed Wind Dir Waves Ship Positions

Chantaco

Last reported at 2014-Sep-19 15:28 UTC. Time now 2014-Sep-19 15:52 UTC.
Position N 49°29' E 000°11'.

Length 143 m; draft 6.6 m.

Type: Tanker. MMSI: 228330700.

Date/timePositionNaut miles runAvg speedWind from/ knotsBaromVisibWave heightAir tempDewpointWater temp
2014-Sep-19 15:28N 49°29' E 000°11'0 0.0
2014-Sep-19 14:16N 49°29' E 000°11'0 0.0
2014-Sep-19 13:28N 49°29' E 000°11'0 0.0
2014-Sep-19 12:16N 49°29' E 000°11'0 0.0
2014-Sep-19 10:22N 49°29' E 000°11'0 0.0
2014-Sep-19 09:28N 49°29' E 000°11'0 0.0
2014-Sep-19 08:28N 49°29' E 000°11'0 0.0
2014-Sep-19 07:28N 49°29' E 000°11'0 0.0
2014-Sep-19 06:28N 49°29' E 000°11'0 0.0
2014-Sep-19 05:28N 49°29' E 000°11'0 0.0
2014-Sep-19 04:28N 49°29' E 000°11'0 0.0
2014-Sep-19 03:07N 49°29' E 000°11'0 0.0
2014-Sep-19 02:34N 49°29' E 000°11'0 0.0
2014-Sep-19 01:33N 49°29' E 000°11'0 0.0
2014-Sep-19 00:33N 49°29' E 000°11'0 0.0
2014-Sep-18 23:33N 49°29' E 000°11'0 0.0
2014-Sep-18 22:33N 49°29' E 000°11'1 0.1
2014-Sep-18 13:33N 49°29' E 000°10'7 6.6
2014-Sep-18 12:33N 49°30' E 000°00'3 2.4
2014-Sep-18 11:30N 49°29' W 000°03'0 0.0
2014-Sep-18 10:30N 49°29' W 000°03'0 0.0
2014-Sep-18 09:30N 49°29' W 000°03'0 0.0
2014-Sep-18 08:33N 49°29' W 000°03'0 0.0
2014-Sep-18 07:30N 49°29' W 000°03'0 0.1
2014-Sep-18 06:30N 49°29' W 000°03'0 0.0
2014-Sep-18 05:30N 49°29' W 000°03'5 5.4
2014-Sep-18 04:33N 49°32' W 000°10'1514.6
2014-Sep-18 03:33N 49°38' W 000°30'1514.9
2014-Sep-18 02:33N 49°44' W 000°51'196 9.8
2014-Sep-17 06:33N 47°51' W 004°54'118 5.1
2014-Sep-16 07:33N 47°18' W 002°06'0 0.0
2014-Sep-16 04:15N 47°18' W 002°06'0 0.0
2014-Sep-15 23:30N 47°18' W 002°06'87 3.9
2014-Sep-15 01:33N 47°33' W 004°12'4414.2
2014-Sep-14 22:26N 47°57' W 005°07'20310.7
2014-Sep-14 03:27N 49°42' W 000°44'1415.4
2014-Sep-14 02:33N 49°37' W 000°24'1414.3
2014-Sep-14 01:34N 49°31' W 000°04'10 2.5
2014-Sep-13 21:32N 49°29' E 000°11'0 0.0
2014-Sep-13 20:17N 49°29' E 000°11'0 0.0
2014-Sep-13 19:23N 49°29' E 000°11'0 0.0
2014-Sep-13 18:26N 49°29' E 000°11'0 0.0
2014-Sep-13 17:17N 49°29' E 000°11'0 0.0
2014-Sep-13 16:23N 49°29' E 000°11'0 0.0
2014-Sep-13 15:29N 49°29' E 000°11'0 0.0
2014-Sep-13 14:29N 49°29' E 000°11'0 0.0
2014-Sep-13 13:17N 49°29' E 000°11'0 0.0
2014-Sep-13 12:23N 49°29' E 000°11'0 0.0
2014-Sep-13 11:32N 49°29' E 000°11'0 0.0
2014-Sep-13 10:32N 49°29' E 000°11'0 0.0
2014-Sep-13 09:32N 49°29' E 000°11'0 0.0
2014-Sep-13 08:29N 49°29' E 000°11'0 0.0
2014-Sep-13 07:32N 49°29' E 000°11'0 0.0
2014-Sep-13 06:23N 49°29' E 000°11'0 0.0
2014-Sep-13 05:28N 49°29' E 000°11'0 0.0
2014-Sep-13 04:31N 49°29' E 000°11'0 0.0
2014-Sep-13 03:16N 49°29' E 000°11'0 0.0
2014-Sep-13 02:28N 49°29' E 000°11'0 0.0
2014-Sep-13 01:22N 49°29' E 000°11'0 0.0
2014-Sep-13 00:22N 49°29' E 000°11'0 0.0
2014-Sep-12 23:28N 49°29' E 000°11'0 0.0
2014-Sep-12 22:28N 49°29' E 000°11'0 0.0
2014-Sep-12 21:28N 49°29' E 000°11'0 0.0
2014-Sep-12 20:31N 49°29' E 000°11'0 0.0
2014-Sep-12 19:22N 49°29' E 000°11'0 0.0
2014-Sep-12 18:28N 49°29' E 000°11'1 0.7
2014-Sep-12 17:33N 49°29' E 000°10'5 5.2
2014-Sep-12 16:33N 49°30' E 000°03'3 2.6
2014-Sep-12 15:32N 49°29' W 000°02'0 0.0
2014-Sep-12 14:32N 49°29' W 000°01'0 0.1
2014-Sep-12 13:32N 49°29' W 000°01'0 0.1
2014-Sep-12 12:32N 49°29' W 000°01'0 0.0
2014-Sep-12 11:32N 49°29' W 000°01'0 0.0
2014-Sep-12 10:32N 49°29' W 000°01'0 0.1
2014-Sep-12 09:32N 49°29' W 000°01'0 0.1
2014-Sep-12 08:32N 49°29' W 000°01'0 0.1
2014-Sep-12 07:32N 49°29' W 000°01'0 0.1
2014-Sep-12 06:32N 49°29' W 000°01'0 0.0
2014-Sep-12 05:32N 49°29' W 000°02'0 0.0
2014-Sep-12 04:32N 49°29' W 000°02'0 0.0
2014-Sep-12 03:32N 49°29' W 000°02'0 0.0
2014-Sep-12 02:32N 49°29' W 000°02'0 0.0
2014-Sep-12 01:32N 49°29' W 000°02'0 0.0
2014-Sep-12 00:32N 49°29' W 000°01'0 0.1
2014-Sep-11 23:32N 49°29' W 000°01'0 0.0
2014-Sep-11 22:32N 49°29' W 000°01'0 0.0
2014-Sep-11 21:32N 49°29' W 000°01'0 0.1
2014-Sep-11 20:32N 49°29' W 000°01'0 0.1
2014-Sep-11 19:32N 49°29' W 000°01'0 0.1
2014-Sep-11 18:32N 49°29' W 000°02'0 0.0
2014-Sep-11 17:32N 49°29' W 000°02'0 0.0
2014-Sep-11 16:32N 49°29' W 000°02'0 0.0
2014-Sep-11 15:32N 49°29' W 000°02'0 0.0
2014-Sep-11 14:32N 49°29' W 000°02'0 0.0
2014-Sep-11 13:32N 49°29' W 000°01'0 0.1
2014-Sep-11 12:31N 49°29' W 000°01'0 0.0
2014-Sep-11 11:31N 49°29' W 000°01'0 0.0
2014-Sep-11 10:31N 49°29' W 000°01'0 0.0
2014-Sep-11 09:22N 49°29' W 000°01'0 0.1
2014-Sep-11 08:19N 49°29' W 000°01'0 0.1
2014-Sep-11 07:31N 49°29' W 000°01'0 0.1
2014-Sep-11 06:31N 49°29' W 000°02'0 0.0
2014-Sep-11 05:31N 49°29' W 000°02'0 0.0
2014-Sep-11 04:31N 49°29' W 000°02'0 0.0
2014-Sep-11 03:31N 49°29' W 000°02'0 0.0
2014-Sep-11 02:13N 49°29' W 000°02'0 0.0
2014-Sep-11 01:25N 49°29' W 000°02'0 0.1
2014-Sep-11 00:31N 49°29' W 000°02'0 0.1
2014-Sep-10 23:31N 49°29' W 000°01'0 0.0
2014-Sep-10 22:31N 49°29' W 000°01'0 0.0
2014-Sep-10 21:31N 49°29' W 000°01'0 0.1
2014-Sep-10 20:31N 49°29' W 000°01'0 0.1
2014-Sep-10 19:31N 49°29' W 000°01'0 0.1
2014-Sep-10 18:31N 49°29' W 000°02'0 0.1
2014-Sep-10 17:31N 49°29' W 000°02'0 0.0
2014-Sep-10 16:31N 49°29' W 000°02'0 0.0
2014-Sep-10 15:31N 49°29' W 000°02'0 0.0
2014-Sep-10 14:31N 49°29' W 000°02'0 0.0
2014-Sep-10 13:31N 49°29' W 000°02'0 0.1
2014-Sep-10 12:31N 49°29' W 000°01'0 0.1
2014-Sep-10 11:31N 49°29' W 000°01'0 0.1
2014-Sep-10 10:31N 49°29' W 000°01'0 0.0
2014-Sep-10 09:31N 49°29' W 000°01'0 0.0
2014-Sep-10 08:31N 49°29' W 000°01'0 0.1
2014-Sep-10 07:31N 49°29' W 000°01'0 0.1
2014-Sep-10 06:31N 49°29' W 000°01'0 0.1
2014-Sep-10 05:31N 49°29' W 000°02'0 0.0
2014-Sep-10 04:31N 49°29' W 000°02'0 0.0
2014-Sep-10 03:31N 49°29' W 000°02'0 0.1
2014-Sep-10 02:31N 49°29' W 000°02'0 0.1
2014-Sep-10 01:31N 49°29' W 000°01'0 0.0
2014-Sep-10 00:31N 49°29' W 000°01'0 0.0
2014-Sep-09 23:30N 49°29' W 000°01'0 0.1
2014-Sep-09 22:30N 49°29' W 000°01'0 0.0
2014-Sep-09 21:33N 49°29' W 000°01'0 0.0
2014-Sep-09 20:30N 49°29' W 000°01'0 0.1
2014-Sep-09 19:30N 49°29' W 000°01'0 0.1
2014-Sep-09 18:30N 49°29' W 000°01'0 0.1
2014-Sep-09 17:30N 49°29' W 000°02'0 0.1
2014-Sep-09 16:33N 49°29' W 000°02'0 0.0
2014-Sep-09 15:33N 49°29' W 000°02'  
Track history (hours):
 
Tides and Currents Weather Stations Pressure Air Temp Water Temp Dewpoint Dewpoint Depression Visibility Wind Speed Wind Dir Waves Ship Positions

Chantaco

Last reported at 2014-Sep-19 15:28 UTC. Time now 2014-Sep-19 15:52 UTC.
Position N 49°29' E 000°11'.

Length 143 m; draft 6.6 m.

Type: Tanker. MMSI: 228330700.

Date/timePositionNaut miles runAvg speedWind from/ knotsBaromVisibWave heightAir tempDewpointWater temp
2014-Sep-19 15:28N 49°29' E 000°11'0 0.0
2014-Sep-19 14:16N 49°29' E 000°11'0 0.0
2014-Sep-19 13:28N 49°29' E 000°11'0 0.0
2014-Sep-19 12:16N 49°29' E 000°11'0 0.0
2014-Sep-19 10:22N 49°29' E 000°11'0 0.0
2014-Sep-19 09:28N 49°29' E 000°11'0 0.0
2014-Sep-19 08:28N 49°29' E 000°11'0 0.0
2014-Sep-19 07:28N 49°29' E 000°11'0 0.0
2014-Sep-19 06:28N 49°29' E 000°11'0 0.0
2014-Sep-19 05:28N 49°29' E 000°11'0 0.0
2014-Sep-19 04:28N 49°29' E 000°11'0 0.0
2014-Sep-19 03:07N 49°29' E 000°11'0 0.0
2014-Sep-19 02:34N 49°29' E 000°11'0 0.0
2014-Sep-19 01:33N 49°29' E 000°11'0 0.0
2014-Sep-19 00:33N 49°29' E 000°11'0 0.0
2014-Sep-18 23:33N 49°29' E 000°11'0 0.0
2014-Sep-18 22:33N 49°29' E 000°11'1 0.1
2014-Sep-18 13:33N 49°29' E 000°10'7 6.6
2014-Sep-18 12:33N 49°30' E 000°00'3 2.4
2014-Sep-18 11:30N 49°29' W 000°03'0 0.0
2014-Sep-18 10:30N 49°29' W 000°03'0 0.0
2014-Sep-18 09:30N 49°29' W 000°03'0 0.0
2014-Sep-18 08:33N 49°29' W 000°03'0 0.0
2014-Sep-18 07:30N 49°29' W 000°03'0 0.1
2014-Sep-18 06:30N 49°29' W 000°03'0 0.0
2014-Sep-18 05:30N 49°29' W 000°03'5 5.4
2014-Sep-18 04:33N 49°32' W 000°10'1514.6
2014-Sep-18 03:33N 49°38' W 000°30'1514.9
2014-Sep-18 02:33N 49°44' W 000°51'196 9.8
2014-Sep-17 06:33N 47°51' W 004°54'118 5.1
2014-Sep-16 07:33N 47°18' W 002°06'0 0.0
2014-Sep-16 04:15N 47°18' W 002°06'0 0.0
2014-Sep-15 23:30N 47°18' W 002°06'87 3.9
2014-Sep-15 01:33N 47°33' W 004°12'4414.2
2014-Sep-14 22:26N 47°57' W 005°07'20310.7
2014-Sep-14 03:27N 49°42' W 000°44'1415.4
2014-Sep-14 02:33N 49°37' W 000°24'1414.3
2014-Sep-14 01:34N 49°31' W 000°04'10 2.5
2014-Sep-13 21:32N 49°29' E 000°11'0 0.0
2014-Sep-13 20:17N 49°29' E 000°11'0 0.0
2014-Sep-13 19:23N 49°29' E 000°11'0 0.0
2014-Sep-13 18:26N 49°29' E 000°11'0 0.0
2014-Sep-13 17:17N 49°29' E 000°11'0 0.0
2014-Sep-13 16:23N 49°29' E 000°11'0 0.0
2014-Sep-13 15:29N 49°29' E 000°11'0 0.0
2014-Sep-13 14:29N 49°29' E 000°11'0 0.0
2014-Sep-13 13:17N 49°29' E 000°11'0 0.0
2014-Sep-13 12:23N 49°29' E 000°11'0 0.0
2014-Sep-13 11:32N 49°29' E 000°11'0 0.0
2014-Sep-13 10:32N 49°29' E 000°11'0 0.0
2014-Sep-13 09:32N 49°29' E 000°11'0 0.0
2014-Sep-13 08:29N 49°29' E 000°11'0 0.0
2014-Sep-13 07:32N 49°29' E 000°11'0 0.0
2014-Sep-13 06:23N 49°29' E 000°11'0 0.0
2014-Sep-13 05:28N 49°29' E 000°11'0 0.0
2014-Sep-13 04:31N 49°29' E 000°11'0 0.0
2014-Sep-13 03:16N 49°29' E 000°11'0 0.0
2014-Sep-13 02:28N 49°29' E 000°11'0 0.0
2014-Sep-13 01:22N 49°29' E 000°11'0 0.0
2014-Sep-13 00:22N 49°29' E 000°11'0 0.0
2014-Sep-12 23:28N 49°29' E 000°11'0 0.0
2014-Sep-12 22:28N 49°29' E 000°11'0 0.0
2014-Sep-12 21:28N 49°29' E 000°11'0 0.0
2014-Sep-12 20:31N 49°29' E 000°11'0 0.0
2014-Sep-12 19:22N 49°29' E 000°11'0 0.0
2014-Sep-12 18:28N 49°29' E 000°11'1 0.7
2014-Sep-12 17:33N 49°29' E 000°10'5 5.2
2014-Sep-12 16:33N 49°30' E 000°03'3 2.6
2014-Sep-12 15:32N 49°29' W 000°02'0 0.0
2014-Sep-12 14:32N 49°29' W 000°01'0 0.1
2014-Sep-12 13:32N 49°29' W 000°01'0 0.1
2014-Sep-12 12:32N 49°29' W 000°01'0 0.0
2014-Sep-12 11:32N 49°29' W 000°01'0 0.0
2014-Sep-12 10:32N 49°29' W 000°01'0 0.1
2014-Sep-12 09:32N 49°29' W 000°01'0 0.1
2014-Sep-12 08:32N 49°29' W 000°01'0 0.1
2014-Sep-12 07:32N 49°29' W 000°01'0 0.1
2014-Sep-12 06:32N 49°29' W 000°01'0 0.0
2014-Sep-12 05:32N 49°29' W 000°02'0 0.0
2014-Sep-12 04:32N 49°29' W 000°02'0 0.0
2014-Sep-12 03:32N 49°29' W 000°02'0 0.0
2014-Sep-12 02:32N 49°29' W 000°02'0 0.0
2014-Sep-12 01:32N 49°29' W 000°02'0 0.0
2014-Sep-12 00:32N 49°29' W 000°01'0 0.1
2014-Sep-11 23:32N 49°29' W 000°01'0 0.0
2014-Sep-11 22:32N 49°29' W 000°01'0 0.0
2014-Sep-11 21:32N 49°29' W 000°01'0 0.1
2014-Sep-11 20:32N 49°29' W 000°01'0 0.1
2014-Sep-11 19:32N 49°29' W 000°01'0 0.1
2014-Sep-11 18:32N 49°29' W 000°02'0 0.0
2014-Sep-11 17:32N 49°29' W 000°02'0 0.0
2014-Sep-11 16:32N 49°29' W 000°02'0 0.0
2014-Sep-11 15:32N 49°29' W 000°02'0 0.0
2014-Sep-11 14:32N 49°29' W 000°02'0 0.0
2014-Sep-11 13:32N 49°29' W 000°01'0 0.1
2014-Sep-11 12:31N 49°29' W 000°01'0 0.0
2014-Sep-11 11:31N 49°29' W 000°01'0 0.0
2014-Sep-11 10:31N 49°29' W 000°01'0 0.0
2014-Sep-11 09:22N 49°29' W 000°01'0 0.1
2014-Sep-11 08:19N 49°29' W 000°01'0 0.1
2014-Sep-11 07:31N 49°29' W 000°01'0 0.1
2014-Sep-11 06:31N 49°29' W 000°02'0 0.0
2014-Sep-11 05:31N 49°29' W 000°02'0 0.0
2014-Sep-11 04:31N 49°29' W 000°02'0 0.0
2014-Sep-11 03:31N 49°29' W 000°02'0 0.0
2014-Sep-11 02:13N 49°29' W 000°02'0 0.0
2014-Sep-11 01:25N 49°29' W 000°02'0 0.1
2014-Sep-11 00:31N 49°29' W 000°02'0 0.1
2014-Sep-10 23:31N 49°29' W 000°01'0 0.0
2014-Sep-10 22:31N 49°29' W 000°01'0 0.0
2014-Sep-10 21:31N 49°29' W 000°01'0 0.1
2014-Sep-10 20:31N 49°29' W 000°01'0 0.1
2014-Sep-10 19:31N 49°29' W 000°01'0 0.1
2014-Sep-10 18:31N 49°29' W 000°02'0 0.1
2014-Sep-10 17:31N 49°29' W 000°02'0 0.0
2014-Sep-10 16:31N 49°29' W 000°02'0 0.0
2014-Sep-10 15:31N 49°29' W 000°02'0 0.0
2014-Sep-10 14:31N 49°29' W 000°02'0 0.0
2014-Sep-10 13:31N 49°29' W 000°02'0 0.1
2014-Sep-10 12:31N 49°29' W 000°01'0 0.1
2014-Sep-10 11:31N 49°29' W 000°01'0 0.1
2014-Sep-10 10:31N 49°29' W 000°01'0 0.0
2014-Sep-10 09:31N 49°29' W 000°01'0 0.0
2014-Sep-10 08:31N 49°29' W 000°01'0 0.1
2014-Sep-10 07:31N 49°29' W 000°01'0 0.1
2014-Sep-10 06:31N 49°29' W 000°01'0 0.1
2014-Sep-10 05:31N 49°29' W 000°02'0 0.0
2014-Sep-10 04:31N 49°29' W 000°02'0 0.0
2014-Sep-10 03:31N 49°29' W 000°02'0 0.1
2014-Sep-10 02:31N 49°29' W 000°02'0 0.1
2014-Sep-10 01:31N 49°29' W 000°01'0 0.0
2014-Sep-10 00:31N 49°29' W 000°01'0 0.0
2014-Sep-09 23:30N 49°29' W 000°01'0 0.1
2014-Sep-09 22:30N 49°29' W 000°01'0 0.0
2014-Sep-09 21:33N 49°29' W 000°01'0 0.0
2014-Sep-09 20:30N 49°29' W 000°01'0 0.1
2014-Sep-09 19:30N 49°29' W 000°01'0 0.1
2014-Sep-09 18:30N 49°29' W 000°01'0 0.1
2014-Sep-09 17:30N 49°29' W 000°02'0 0.1
2014-Sep-09 16:33N 49°29' W 000°02'0 0.0
2014-Sep-09 15:33N 49°29' W 000°02'  

Dump ship's entire track history